createdAt,value
2023-02-21T00:02:31.739Z,26.10
2023-02-21T00:05:19.078Z,24.73
2023-02-21T00:08:04.748Z,23.80
2023-02-21T00:10:50.163Z,25.10
2023-02-21T00:13:36.142Z,24.80
2023-02-21T00:16:21.974Z,24.00
2023-02-21T00:19:07.825Z,21.70
2023-02-21T00:21:54.921Z,21.47
2023-02-21T00:24:40.292Z,22.23
2023-02-21T00:27:25.650Z,23.03
2023-02-21T00:30:11.562Z,20.23
2023-02-21T00:32:57.058Z,20.23
2023-02-21T00:35:42.551Z,19.93
2023-02-21T00:38:30.090Z,19.13
2023-02-21T00:41:16.080Z,19.20
2023-02-21T00:44:02.167Z,18.27
2023-02-21T00:46:48.121Z,17.77
2023-02-21T00:49:33.864Z,17.53
2023-02-21T00:52:19.203Z,19.63
2023-02-21T00:55:06.359Z,17.67
2023-02-21T00:57:51.767Z,17.40
2023-02-21T01:00:40.199Z,18.63
2023-02-21T01:03:26.923Z,16.87
2023-02-21T01:06:13.082Z,17.53
2023-02-21T01:09:00.903Z,19.47
2023-02-21T01:11:48.398Z,18.50
2023-02-21T01:14:34.457Z,17.00
2023-02-21T01:17:19.806Z,16.93
2023-02-21T01:20:05.671Z,16.17
2023-02-21T01:22:51.666Z,16.53
2023-02-21T01:25:37.142Z,16.77
2023-02-21T01:28:24.556Z,17.17
2023-02-21T01:31:10.555Z,16.90
2023-02-21T01:33:58.519Z,16.60
2023-02-21T01:36:44.528Z,16.90
2023-02-21T01:39:30.344Z,15.53
2023-02-21T01:42:16.400Z,16.10
2023-02-21T01:45:04.880Z,15.70
2023-02-21T01:47:51.062Z,15.77
2023-02-21T01:50:39.863Z,15.03
2023-02-21T01:53:29.022Z,15.27
2023-02-21T01:56:16.131Z,14.23
2023-02-21T01:59:03.150Z,14.77
2023-02-21T02:01:56.417Z,15.57
2023-02-21T02:04:42.103Z,14.50
2023-02-21T02:07:28.904Z,14.40
2023-02-21T02:10:14.997Z,13.77
2023-02-21T02:13:20.516Z,13.80
2023-02-21T02:15:59.643Z,14.80
2023-02-21T02:18:54.489Z,15.40
2023-02-21T02:22:01.187Z,14.57
2023-02-21T02:24:48.575Z,14.43
2023-02-21T02:27:46.066Z,13.00
2023-02-21T02:30:37.360Z,13.43
2023-02-21T02:33:36.895Z,13.17
2023-02-21T02:36:09.281Z,12.40
2023-02-21T02:38:43.934Z,11.90
2023-02-21T02:41:18.356Z,12.03
2023-02-21T02:43:52.817Z,12.80
2023-02-21T02:46:24.491Z,12.83
2023-02-21T02:48:57.632Z,12.07
2023-02-21T02:51:27.966Z,11.90
2023-02-21T02:53:56.515Z,12.37
2023-02-21T02:56:26.759Z,11.40
2023-02-21T02:58:57.726Z,12.33
2023-02-21T03:02:02.657Z,11.80
2023-02-21T03:05:09.409Z,11.63
2023-02-21T03:07:49.823Z,11.37
2023-02-21T03:10:24.515Z,10.53
2023-02-21T03:13:02.321Z,10.40
2023-02-21T03:15:36.774Z,10.67
2023-02-21T03:18:10.810Z,11.13
2023-02-21T03:20:39.548Z,10.43
2023-02-21T03:23:12.602Z,10.20
2023-02-21T03:25:42.486Z,9.23
2023-02-21T03:28:11.108Z,9.40
2023-02-21T03:30:40.917Z,9.93
2023-02-21T03:33:09.378Z,9.23
2023-02-21T03:35:37.773Z,9.33
2023-02-21T03:38:06.768Z,9.43
2023-02-21T03:40:36.534Z,8.57
2023-02-21T03:43:08.002Z,9.50
2023-02-21T03:45:36.606Z,8.53
2023-02-21T03:48:05.359Z,8.57
2023-02-21T03:50:33.636Z,8.40
2023-02-21T03:53:01.803Z,8.13
2023-02-21T03:55:30.054Z,8.60
2023-02-21T03:57:59.695Z,8.17
2023-02-21T04:00:27.918Z,8.27
2023-02-21T04:02:56.530Z,8.70
2023-02-21T04:05:24.793Z,8.57
2023-02-21T04:07:52.979Z,8.90
2023-02-21T04:10:21.286Z,7.27
2023-02-21T04:12:49.450Z,8.33
2023-02-21T04:15:19.037Z,8.00
2023-02-21T04:17:47.247Z,7.93
2023-02-21T04:20:16.379Z,7.70
2023-02-21T04:22:51.852Z,7.33
2023-02-21T04:25:26.141Z,7.53
2023-02-21T04:27:54.329Z,7.73
2023-02-21T04:30:24.902Z,8.23
2023-02-21T04:32:53.344Z,7.80
2023-02-21T04:35:21.794Z,7.40
2023-02-21T04:37:50.002Z,9.47
2023-02-21T04:40:18.364Z,8.40
2023-02-21T04:42:46.590Z,8.20
2023-02-21T04:45:14.950Z,7.90
2023-02-21T04:47:44.696Z,8.63
2023-02-21T04:50:12.955Z,9.23
2023-02-21T04:52:41.684Z,8.67
2023-02-21T04:55:10.414Z,9.70
2023-02-21T04:57:38.645Z,8.67
2023-02-21T05:00:08.335Z,9.20
2023-02-21T05:02:36.552Z,8.50
2023-02-21T05:05:06.398Z,9.23
2023-02-21T05:07:34.652Z,9.00
2023-02-21T05:10:05.594Z,10.23
2023-02-21T05:12:33.913Z,10.67
2023-02-21T05:15:02.049Z,11.10
2023-02-21T05:17:30.178Z,11.30
2023-02-21T05:19:58.686Z,12.63
2023-02-21T05:22:28.298Z,13.93
2023-02-21T05:24:56.462Z,21.80
2023-02-21T05:27:24.820Z,21.60
2023-02-21T05:29:54.737Z,18.97
2023-02-21T05:32:23.847Z,13.87
2023-02-21T05:34:52.077Z,12.57
2023-02-21T05:37:21.786Z,14.60
2023-02-21T05:39:51.516Z,15.80
2023-02-21T05:42:19.694Z,16.13
2023-02-21T05:44:48.469Z,15.57
2023-02-21T05:47:17.104Z,16.77
2023-02-21T05:49:45.485Z,17.20
2023-02-21T05:52:15.460Z,14.83
2023-02-21T05:54:43.916Z,20.10
2023-02-21T05:57:13.485Z,14.53
2023-02-21T05:59:41.681Z,13.43
2023-02-21T06:02:09.846Z,12.83
2023-02-21T06:04:38.072Z,15.43
2023-02-21T06:07:06.360Z,16.13
2023-02-21T06:09:34.658Z,17.00
2023-02-21T06:12:02.832Z,17.13
2023-02-21T06:14:32.410Z,18.50
2023-02-21T06:17:02.827Z,19.53
2023-02-21T06:19:33.247Z,18.90
2023-02-21T06:22:01.709Z,20.37
2023-02-21T06:24:29.940Z,20.20
2023-02-21T06:26:58.185Z,18.23
2023-02-21T06:29:26.450Z,19.33
2023-02-21T06:31:59.512Z,17.50
2023-02-21T06:34:28.573Z,19.60
2023-02-21T06:36:57.480Z,19.77
2023-02-21T06:39:25.802Z,19.30
2023-02-21T06:41:54.076Z,20.33
2023-02-21T06:44:22.383Z,18.37
2023-02-21T06:46:51.653Z,17.57
2023-02-21T06:49:21.280Z,19.37
2023-02-21T06:51:49.444Z,18.83
2023-02-21T06:54:17.967Z,19.30
2023-02-21T06:56:46.235Z,19.83
2023-02-21T06:59:14.517Z,18.77
2023-02-21T07:01:43.014Z,18.07
2023-02-21T07:04:11.278Z,18.57
2023-02-21T07:06:40.801Z,19.27
2023-02-21T07:09:09.101Z,19.07
2023-02-21T07:11:37.596Z,17.03
2023-02-21T07:14:05.909Z,15.17
2023-02-21T07:16:34.167Z,13.73
2023-02-21T07:19:02.308Z,14.30
2023-02-21T07:21:32.155Z,14.53
2023-02-21T07:24:01.727Z,13.97
2023-02-21T07:26:29.883Z,12.90
2023-02-21T07:28:58.139Z,14.73
2023-02-21T07:31:27.108Z,13.77
2023-02-21T07:33:55.406Z,13.67
2023-02-21T07:36:24.240Z,14.50
2023-02-21T07:38:52.489Z,14.07
2023-02-21T07:41:22.096Z,14.50
2023-02-21T07:43:51.411Z,16.37
2023-02-21T07:46:19.863Z,17.93
2023-02-21T07:48:48.436Z,17.37
2023-02-21T07:51:17.019Z,18.90
2023-02-21T07:53:45.338Z,20.23
2023-02-21T07:56:13.676Z,20.30
2023-02-21T07:58:43.220Z,19.93
2023-02-21T08:01:11.436Z,19.70
2023-02-21T08:03:40.962Z,19.43
2023-02-21T08:06:10.087Z,18.17
2023-02-21T08:08:38.276Z,20.13
2023-02-21T08:11:06.749Z,19.23
2023-02-21T08:13:34.965Z,19.30
2023-02-21T08:16:04.733Z,19.17
2023-02-21T08:18:32.945Z,18.83
2023-02-21T08:21:01.131Z,19.57
2023-02-21T08:23:29.327Z,20.13
2023-02-21T08:25:57.496Z,17.27
2023-02-21T08:28:25.747Z,19.70
2023-02-21T08:30:53.966Z,20.87
2023-02-21T08:33:23.913Z,26.97
2023-02-21T08:35:52.160Z,23.00
2023-02-21T08:38:20.597Z,23.67
2023-02-21T08:40:48.975Z,24.60
2023-02-21T08:43:17.279Z,26.33
2023-02-21T08:45:45.593Z,24.80
2023-02-21T08:48:14.075Z,27.53
2023-02-21T08:50:43.682Z,27.43
2023-02-21T08:53:15.216Z,26.13
2023-02-21T08:55:43.846Z,27.50
2023-02-21T08:58:13.748Z,27.77
2023-02-21T09:00:41.978Z,30.17
2023-02-21T09:03:10.294Z,29.20
2023-02-21T09:05:38.527Z,29.37
2023-02-21T09:08:10.501Z,29.57
2023-02-21T09:10:47.266Z,27.13
2023-02-21T09:13:15.748Z,28.97
2023-02-21T09:15:43.888Z,29.73
2023-02-21T09:18:13.537Z,30.80
2023-02-21T09:20:42.840Z,29.90
2023-02-21T09:23:12.532Z,29.30
2023-02-21T09:25:40.758Z,27.80
2023-02-21T09:28:08.878Z,27.77
2023-02-21T09:30:37.189Z,28.43
2023-02-21T09:33:05.608Z,26.60
2023-02-21T09:35:33.858Z,26.57
2023-02-21T09:38:02.775Z,26.73
2023-02-21T09:40:37.684Z,27.00
2023-02-21T09:43:09.822Z,26.67
2023-02-21T09:45:39.240Z,27.93
2023-02-21T09:48:15.216Z,27.13
2023-02-21T09:50:47.463Z,27.07
2023-02-21T09:53:20.388Z,39.67
2023-02-21T09:55:51.349Z,29.03
2023-02-21T09:58:21.532Z,26.50
2023-02-21T10:00:50.071Z,26.53
2023-02-21T10:03:37.402Z,27.17
2023-02-21T10:06:13.603Z,27.00
2023-02-21T10:08:51.067Z,27.87
2023-02-21T10:11:34.024Z,27.57
2023-02-21T10:14:13.233Z,26.20
2023-02-21T10:16:49.205Z,26.20
2023-02-21T10:19:22.993Z,25.60
2023-02-21T10:21:51.922Z,25.93
2023-02-21T10:24:23.208Z,24.07
2023-02-21T10:27:03.889Z,24.73
2023-02-21T10:29:40.501Z,22.47
2023-02-21T10:32:10.252Z,22.73
2023-02-21T10:34:38.720Z,24.87
2023-02-21T10:37:34.288Z,21.83
2023-02-21T10:40:08.818Z,21.37
2023-02-21T10:42:43.832Z,21.87
2023-02-21T10:45:14.143Z,21.10
2023-02-21T10:47:52.095Z,21.77
2023-02-21T10:50:51.095Z,20.83
2023-02-21T10:53:29.059Z,20.67
2023-02-21T10:56:24.069Z,20.87
2023-02-21T10:58:55.218Z,21.33
2023-02-21T11:01:33.282Z,21.40
2023-02-21T11:04:05.676Z,19.80
2023-02-21T11:06:36.606Z,19.30
2023-02-21T11:09:26.280Z,20.63
2023-02-21T11:12:03.061Z,20.27
2023-02-21T11:14:33.471Z,19.63
2023-02-21T11:17:14.537Z,18.83
2023-02-21T11:19:51.701Z,21.73
2023-02-21T11:22:23.052Z,19.43
2023-02-21T11:25:01.291Z,18.53
2023-02-21T11:27:32.863Z,17.90
2023-02-21T11:30:04.703Z,18.50
2023-02-21T11:32:36.547Z,17.13
2023-02-21T11:35:21.692Z,18.07
2023-02-21T11:37:52.970Z,17.87
2023-02-21T11:40:27.810Z,18.77
2023-02-21T11:43:11.367Z,19.00
2023-02-21T11:45:44.496Z,19.13
2023-02-21T11:48:18.254Z,19.23
2023-02-21T11:50:51.224Z,18.80
2023-02-21T11:53:24.654Z,17.97
2023-02-21T11:56:04.139Z,18.07
2023-02-21T11:58:41.567Z,17.53
2023-02-21T12:01:14.713Z,17.97
2023-02-21T12:04:01.547Z,17.60
2023-02-21T12:06:39.059Z,18.40
2023-02-21T12:09:16.119Z,17.23
2023-02-21T12:11:57.785Z,17.17
2023-02-21T12:15:01.243Z,17.43
2023-02-21T12:17:53.357Z,15.57
2023-02-21T12:20:34.707Z,17.33
2023-02-21T12:23:13.389Z,15.10
2023-02-21T12:26:04.032Z,17.17
2023-02-21T12:28:48.593Z,17.80
2023-02-21T12:31:32.200Z,16.63
2023-02-21T12:34:12.513Z,17.53
2023-02-21T12:36:56.579Z,17.07
2023-02-21T12:39:39.529Z,27.77
2023-02-21T12:42:26.458Z,17.67
2023-02-21T12:45:04.533Z,16.60
2023-02-21T12:47:39.911Z,15.47
2023-02-21T12:50:18.288Z,18.03
2023-02-21T12:52:54.863Z,15.57
2023-02-21T12:55:25.992Z,31.63
2023-02-21T12:57:58.288Z,16.77
2023-02-21T13:00:29.259Z,16.47
2023-02-21T13:03:05.634Z,17.37
2023-02-21T13:05:40.924Z,18.60
2023-02-21T13:08:20.930Z,18.03
2023-02-21T13:10:57.190Z,15.93
2023-02-21T13:13:29.528Z,15.53
2023-02-21T13:15:59.275Z,16.90
2023-02-21T13:18:32.139Z,16.10
2023-02-21T13:21:12.293Z,17.00
2023-02-21T13:24:33.529Z,16.83
2023-02-21T13:27:39.100Z,17.00
2023-02-21T13:30:15.130Z,15.00
2023-02-21T13:32:53.127Z,15.27
2023-02-21T13:35:26.720Z,16.40
2023-02-21T13:37:57.252Z,17.17
2023-02-21T13:40:32.778Z,15.60
2023-02-21T13:43:11.063Z,17.70
2023-02-21T13:45:39.648Z,17.93
2023-02-21T13:48:25.926Z,17.67
2023-02-21T13:50:55.942Z,17.97
2023-02-21T13:53:31.577Z,25.30
2023-02-21T13:56:42.652Z,31.57
2023-02-21T13:59:37.040Z,20.50
2023-02-21T14:02:24.207Z,17.70
2023-02-21T14:05:05.704Z,19.10
2023-02-21T14:07:49.739Z,20.63
2023-02-21T14:10:38.053Z,18.27
2023-02-21T14:13:09.959Z,17.93
2023-02-21T14:15:43.870Z,17.13
2023-02-21T14:18:23.704Z,19.67
2023-02-21T14:20:55.214Z,18.23
2023-02-21T14:23:26.492Z,18.77
2023-02-21T14:26:01.234Z,17.97
2023-02-21T14:29:06.255Z,16.77
2023-02-21T14:31:52.551Z,18.13
2023-02-21T14:34:37.012Z,18.70
2023-02-21T14:37:14.393Z,17.50
2023-02-21T14:39:45.180Z,17.27
2023-02-21T14:42:40.733Z,17.37
2023-02-21T14:45:27.993Z,20.53
2023-02-21T14:48:30.748Z,19.40
2023-02-21T14:51:36.274Z,18.43
2023-02-21T14:54:37.291Z,18.33
2023-02-21T14:57:29.328Z,18.73
2023-02-21T15:00:18.917Z,17.87
2023-02-21T15:02:54.938Z,18.37
2023-02-21T15:05:27.328Z,19.40
2023-02-21T15:08:03.778Z,18.13
2023-02-21T15:10:33.550Z,22.07
2023-02-21T15:13:03.950Z,40.93
2023-02-21T15:15:36.899Z,38.77
2023-02-21T15:18:07.689Z,42.37
2023-02-21T15:20:37.886Z,26.40
2023-02-21T15:23:14.897Z,23.50
2023-02-21T15:25:43.410Z,30.43
2023-02-21T15:28:22.929Z,31.93
2023-02-21T15:31:04.404Z,23.23
2023-02-21T15:33:35.784Z,23.67
2023-02-21T15:36:06.986Z,40.33
2023-02-21T15:38:39.620Z,43.83
2023-02-21T15:41:15.026Z,31.50
2023-02-21T15:43:49.706Z,32.80
2023-02-21T15:46:22.723Z,33.17
2023-02-21T15:48:51.435Z,25.33
2023-02-21T15:51:20.323Z,32.23
2023-02-21T15:54:09.944Z,19.90
2023-02-21T15:56:38.140Z,18.90
2023-02-21T15:59:19.003Z,22.37
2023-02-21T16:02:08.500Z,18.57
2023-02-21T16:04:38.574Z,22.97
2023-02-21T16:07:09.680Z,21.73
2023-02-21T16:09:38.278Z,23.70
2023-02-21T16:12:09.232Z,31.93
2023-02-21T16:14:42.595Z,24.67
2023-02-21T16:17:27.925Z,25.03
2023-02-21T16:19:58.998Z,24.33
2023-02-21T16:22:43.018Z,18.50
2023-02-21T16:25:20.030Z,18.57
2023-02-21T16:27:51.760Z,28.37
2023-02-21T16:30:21.906Z,20.47
2023-02-21T16:32:53.590Z,28.67
2023-02-21T16:35:24.665Z,37.83
2023-02-21T16:37:56.621Z,21.10
2023-02-21T16:40:26.470Z,20.80
2023-02-21T16:42:56.345Z,22.13
2023-02-21T16:45:25.391Z,21.03
2023-02-21T16:47:59.804Z,21.13
2023-02-21T16:50:31.874Z,22.87
2023-02-21T16:53:00.499Z,21.03
2023-02-21T16:55:29.490Z,18.97
2023-02-21T16:58:00.479Z,21.37
2023-02-21T17:00:28.910Z,19.73
2023-02-21T17:02:58.482Z,19.73
2023-02-21T17:05:26.891Z,21.90
2023-02-21T17:07:57.514Z,20.27
2023-02-21T17:10:25.978Z,18.40
2023-02-21T17:12:54.164Z,20.30
2023-02-21T17:15:23.831Z,20.33
2023-02-21T17:17:53.940Z,19.47
2023-02-21T17:20:24.893Z,18.33
2023-02-21T17:22:53.679Z,21.13
2023-02-21T17:25:23.546Z,20.27
2023-02-21T17:27:52.012Z,20.63
2023-02-21T17:30:23.011Z,19.80
2023-02-21T17:32:52.341Z,20.00
2023-02-21T17:35:22.574Z,20.70
2023-02-21T17:37:52.679Z,20.57
2023-02-21T17:40:22.365Z,20.43
2023-02-21T17:42:50.830Z,19.63
2023-02-21T17:45:20.783Z,18.77
2023-02-21T17:47:49.608Z,19.37
2023-02-21T17:50:18.339Z,19.47
2023-02-21T17:52:46.904Z,20.33
2023-02-21T17:55:28.446Z,18.97
2023-02-21T17:57:57.667Z,19.90
2023-02-21T18:00:28.383Z,18.57
2023-02-21T18:02:57.403Z,20.13
2023-02-21T18:05:25.588Z,20.60
2023-02-21T18:07:55.170Z,20.03
2023-02-21T18:10:26.881Z,19.57
2023-02-21T18:12:55.193Z,20.03
2023-02-21T18:15:27.405Z,21.63
2023-02-21T18:17:55.722Z,21.63
2023-02-21T18:20:24.942Z,20.87
2023-02-21T18:22:53.110Z,19.80
2023-02-21T18:25:24.218Z,20.30
2023-02-21T18:27:54.423Z,20.50
2023-02-21T18:30:23.035Z,20.73
2023-02-21T18:32:51.328Z,19.07
2023-02-21T18:35:20.017Z,20.27
2023-02-21T18:37:48.834Z,22.37
2023-02-21T18:40:18.587Z,22.50
2023-02-21T18:42:47.892Z,22.53
2023-02-21T18:45:17.670Z,24.23
2023-02-21T18:47:45.819Z,24.00
2023-02-21T18:50:15.168Z,23.97
2023-02-21T18:52:43.325Z,25.90
2023-02-21T18:55:12.705Z,24.93
2023-02-21T18:57:41.085Z,25.47
2023-02-21T19:00:11.379Z,25.93
2023-02-21T19:02:41.012Z,26.67
2023-02-21T19:05:09.718Z,25.87
2023-02-21T19:07:38.005Z,24.23
2023-02-21T19:10:07.020Z,25.17
2023-02-21T19:12:35.191Z,26.17
2023-02-21T19:15:03.545Z,30.88
2023-02-21T19:17:31.749Z,102.33
2023-02-21T19:20:01.808Z,37.60
2023-02-21T19:22:30.002Z,33.37
2023-02-21T19:24:58.353Z,29.87
2023-02-21T19:27:26.497Z,27.77
2023-02-21T19:29:55.069Z,27.03
2023-02-21T19:32:23.483Z,27.87
2023-02-21T19:34:52.065Z,28.17
2023-02-21T19:37:21.742Z,28.33
2023-02-21T19:39:50.038Z,26.50
2023-02-21T19:42:18.189Z,26.27
2023-02-21T19:44:46.351Z,26.57
2023-02-21T19:47:14.571Z,26.73
2023-02-21T19:49:46.049Z,26.50
2023-02-21T19:52:14.698Z,27.07
2023-02-21T19:54:44.607Z,27.37
2023-02-21T19:57:12.794Z,28.37
2023-02-21T19:59:40.999Z,29.90
2023-02-21T20:02:12.064Z,28.73
2023-02-21T20:04:41.447Z,28.70
2023-02-21T20:07:09.714Z,27.57
2023-02-21T20:09:38.043Z,28.97
2023-02-21T20:12:08.271Z,31.20
2023-02-21T20:14:36.398Z,32.23
2023-02-21T20:17:04.684Z,33.40
2023-02-21T20:19:33.481Z,34.43
2023-02-21T20:22:01.582Z,30.37
2023-02-21T20:24:29.757Z,29.13
2023-02-21T20:26:57.897Z,29.13
2023-02-21T20:29:27.612Z,27.63
2023-02-21T20:31:56.084Z,26.47
2023-02-21T20:34:25.499Z,30.17
2023-02-21T20:36:53.838Z,27.57
2023-02-21T20:39:28.125Z,29.63
2023-02-21T20:41:56.450Z,29.50
2023-02-21T20:44:25.674Z,41.90
2023-02-21T20:46:57.330Z,38.77
2023-02-21T20:49:25.420Z,34.37
2023-02-21T20:51:53.757Z,32.87
2023-02-21T20:54:23.143Z,29.53
2023-02-21T20:56:53.827Z,29.40
2023-02-21T20:59:23.975Z,29.70
2023-02-21T21:01:52.370Z,27.43
2023-02-21T21:04:26.591Z,28.47
2023-02-21T21:06:56.997Z,26.23
2023-02-21T21:09:34.190Z,26.30
2023-02-21T21:12:03.421Z,25.60
2023-02-21T21:14:33.129Z,27.20
2023-02-21T21:17:01.856Z,28.67
2023-02-21T21:19:34.146Z,30.60
2023-02-21T21:22:02.627Z,28.23
2023-02-21T21:24:32.081Z,28.10
2023-02-21T21:27:07.515Z,28.23
2023-02-21T21:29:37.592Z,30.33
2023-02-21T21:32:09.353Z,30.17
2023-02-21T21:34:42.168Z,30.20
2023-02-21T21:37:11.142Z,31.20
2023-02-21T21:39:39.745Z,34.07
2023-02-21T21:42:09.782Z,34.60
2023-02-21T21:44:39.713Z,33.07
2023-02-21T21:47:08.318Z,32.03
2023-02-21T21:49:37.336Z,32.00
2023-02-21T21:52:07.152Z,31.20
2023-02-21T21:54:36.267Z,32.63
2023-02-21T21:57:06.436Z,34.07
2023-02-21T21:59:38.121Z,31.57
2023-02-21T22:02:06.382Z,31.93
2023-02-21T22:04:35.765Z,32.67
2023-02-21T22:07:05.155Z,31.53
2023-02-21T22:09:36.196Z,32.47
2023-02-21T22:12:06.118Z,29.23
2023-02-21T22:14:34.817Z,28.07
2023-02-21T22:17:05.429Z,27.20
2023-02-21T22:19:34.967Z,26.20
2023-02-21T22:22:08.315Z,26.13
2023-02-21T22:24:40.972Z,25.83
2023-02-21T22:27:09.456Z,25.00
2023-02-21T22:29:37.663Z,24.20
2023-02-21T22:32:07.389Z,25.27
2023-02-21T22:34:35.650Z,25.43
2023-02-21T22:37:04.094Z,26.27
2023-02-21T22:39:32.329Z,24.87
2023-02-21T22:42:05.300Z,24.30
2023-02-21T22:44:33.534Z,24.83
2023-02-21T22:47:01.902Z,26.07
2023-02-21T22:49:30.733Z,26.10
2023-02-21T22:51:59.067Z,25.17
2023-02-21T22:54:31.535Z,26.90
2023-02-21T22:57:03.348Z,25.73
2023-02-21T22:59:35.485Z,26.00
2023-02-21T23:02:04.265Z,138.73
2023-02-21T23:04:37.526Z,54.83
2023-02-21T23:07:06.388Z,28.27
2023-02-21T23:09:36.966Z,25.87
2023-02-21T23:12:07.359Z,25.50
2023-02-21T23:14:35.796Z,27.30
2023-02-21T23:17:04.713Z,28.67
2023-02-21T23:19:32.995Z,28.57
2023-02-21T23:22:01.459Z,28.07
2023-02-21T23:24:29.553Z,28.23
2023-02-21T23:26:57.745Z,29.03
2023-02-21T23:29:27.966Z,27.43
2023-02-21T23:32:09.773Z,27.50
2023-02-21T23:34:41.364Z,27.23
2023-02-21T23:37:12.246Z,27.27
2023-02-21T23:39:41.963Z,24.63
2023-02-21T23:42:11.089Z,26.17
2023-02-21T23:44:41.398Z,26.40
2023-02-21T23:47:09.595Z,24.03
2023-02-21T23:49:44.075Z,25.27
2023-02-21T23:52:12.601Z,26.10
2023-02-21T23:54:42.054Z,27.37
2023-02-21T23:57:10.241Z,24.73
2023-02-21T23:59:38.547Z,23.50
